sensor_id;sensor_type;location;lat;lon;timestamp;temperature;humidity
53204;DHT22;39086;54.424;18.456;2022-08-16T00:03:33;18.40;99.90
53204;DHT22;39086;54.424;18.456;2022-08-16T00:04:38;18.50;99.90
53204;DHT22;39086;54.424;18.456;2022-08-16T00:05:52;18.50;99.90
53204;DHT22;39086;54.424;18.456;2022-08-16T00:06:59;18.50;99.90
53204;DHT22;39086;54.424;18.456;2022-08-16T00:08:04;18.40;99.90
53204;DHT22;39086;54.424;18.456;2022-08-16T00:10:19;18.40;99.90
53204;DHT22;39086;54.424;18.456;2022-08-16T00:11:23;18.50;99.90
53204;DHT22;39086;54.424;18.456;2022-08-16T00:12:28;18.50;99.90
53204;DHT22;39086;54.424;18.456;2022-08-16T00:13:33;18.50;99.90
53204;DHT22;39086;54.424;18.456;2022-08-16T00:17:00;18.40;99.90
53204;DHT22;39086;54.424;18.456;2022-08-16T00:19:53;18.40;99.90
53204;DHT22;39086;54.424;18.456;2022-08-16T00:31:47;18.40;99.90
53204;DHT22;39086;54.424;18.456;2022-08-16T01:56:55;17.50;99.90
53204;DHT22;39086;54.424;18.456;2022-08-16T01:57:58;17.60;99.90
53204;DHT22;39086;54.424;18.456;2022-08-16T02:19:42;17.50;99.90
53204;DHT22;39086;54.424;18.456;2022-08-16T02:21:02;17.50;99.90
53204;DHT22;39086;54.424;18.456;2022-08-16T02:22:20;17.80;99.90
53204;DHT22;39086;54.424;18.456;2022-08-16T02:23:37;17.60;99.90
53204;DHT22;39086;54.424;18.456;2022-08-16T02:24:41;17.60;99.90
53204;DHT22;39086;54.424;18.456;2022-08-16T02:25:47;17.60;99.90
53204;DHT22;39086;54.424;18.456;2022-08-16T02:27:01;17.50;99.90
53204;DHT22;39086;54.424;18.456;2022-08-16T02:28:13;17.50;99.90
53204;DHT22;39086;54.424;18.456;2022-08-16T02:29:24;17.50;99.90
53204;DHT22;39086;54.424;18.456;2022-08-16T02:30:33;17.60;99.90
53204;DHT22;39086;54.424;18.456;2022-08-16T02:31:47;17.60;99.90
53204;DHT22;39086;54.424;18.456;2022-08-16T02:33:17;17.50;99.90
53204;DHT22;39086;54.424;18.456;2022-08-16T02:34:25;17.60;99.90
53204;DHT22;39086;54.424;18.456;2022-08-16T02:35:41;17.60;99.90
53204;DHT22;39086;54.424;18.456;2022-08-16T02:37:00;17.70;99.90
53204;DHT22;39086;54.424;18.456;2022-08-16T02:38:04;17.60;99.90
53204;DHT22;39086;54.424;18.456;2022-08-16T02:39:12;17.70;99.90
53204;DHT22;39086;54.424;18.456;2022-08-16T02:40:16;17.70;99.90
53204;DHT22;39086;54.424;18.456;2022-08-16T02:41:19;17.60;99.90
53204;DHT22;39086;54.424;18.456;2022-08-16T02:42:32;17.60;99.90
53204;DHT22;39086;54.424;18.456;2022-08-16T02:43:35;17.70;99.90
53204;DHT22;39086;54.424;18.456;2022-08-16T02:44:40;17.60;99.90
53204;DHT22;39086;54.424;18.456;2022-08-16T02:45:43;17.60;99.90
53204;DHT22;39086;54.424;18.456;2022-08-16T04:51:19;19.00;99.90
53204;DHT22;39086;54.424;18.456;2022-08-16T06:08:33;20.20;99.90
53204;DHT22;39086;54.424;18.456;2022-08-16T06:25:58;20.60;99.90
53204;DHT22;39086;54.424;18.456;2022-08-16T06:48:58;21.30;99.90
53204;DHT22;39086;54.424;18.456;2022-08-16T06:50:04;21.30;99.90
53204;DHT22;39086;54.424;18.456;2022-08-16T06:51:29;21.30;99.90
53204;DHT22;39086;54.424;18.456;2022-08-16T06:52:49;21.50;99.90
53204;DHT22;39086;54.424;18.456;2022-08-16T07:00:54;21.60;99.90
53204;DHT22;39086;54.424;18.456;2022-08-16T07:02:10;21.70;99.90
53204;DHT22;39086;54.424;18.456;2022-08-16T07:03:34;21.70;99.90
53204;DHT22;39086;54.424;18.456;2022-08-16T07:04:57;21.70;99.90
53204;DHT22;39086;54.424;18.456;2022-08-16T07:06:03;21.80;99.90
53204;DHT22;39086;54.424;18.456;2022-08-16T07:07:12;21.80;99.90
53204;DHT22;39086;54.424;18.456;2022-08-16T07:08:16;21.80;99.90
53204;DHT22;39086;54.424;18.456;2022-08-16T07:09:19;21.90;99.90
53204;DHT22;39086;54.424;18.456;2022-08-16T07:10:30;21.90;99.90
53204;DHT22;39086;54.424;18.456;2022-08-16T07:11:42;22.00;99.90
53204;DHT22;39086;54.424;18.456;2022-08-16T07:16:51;22.10;99.90
53204;DHT22;39086;54.424;18.456;2022-08-16T07:18:00;22.20;99.90
53204;DHT22;39086;54.424;18.456;2022-08-16T07:19:05;22.20;99.90
53204;DHT22;39086;54.424;18.456;2022-08-16T07:20:10;22.20;99.90
53204;DHT22;39086;54.424;18.456;2022-08-16T07:21:36;22.30;99.90
53204;DHT22;39086;54.424;18.456;2022-08-16T07:23:00;22.30;99.90
53204;DHT22;39086;54.424;18.456;2022-08-16T07:24:14;22.40;99.90
53204;DHT22;39086;54.424;18.456;2022-08-16T07:25:31;22.40;99.90
53204;DHT22;39086;54.424;18.456;2022-08-16T07:26:41;22.40;99.90
53204;DHT22;39086;54.424;18.456;2022-08-16T07:27:50;22.50;99.90
53204;DHT22;39086;54.424;18.456;2022-08-16T07:33:52;22.50;99.90
53204;DHT22;39086;54.424;18.456;2022-08-16T07:35:02;22.70;99.90
53204;DHT22;39086;54.424;18.456;2022-08-16T07:36:07;22.70;99.90
53204;DHT22;39086;54.424;18.456;2022-08-16T07:37:12;22.80;99.90
53204;DHT22;39086;54.424;18.456;2022-08-16T07:38:15;22.80;99.90
53204;DHT22;39086;54.424;18.456;2022-08-16T07:39:20;22.80;99.90
53204;DHT22;39086;54.424;18.456;2022-08-16T07:40:35;22.90;99.90
53204;DHT22;39086;54.424;18.456;2022-08-16T07:41:59;22.90;99.90
53204;DHT22;39086;54.424;18.456;2022-08-16T07:43:08;22.90;99.90
53204;DHT22;39086;54.424;18.456;2022-08-16T07:44:10;23.00;99.90
53204;DHT22;39086;54.424;18.456;2022-08-16T07:45:20;23.00;99.90
53204;DHT22;39086;54.424;18.456;2022-08-16T07:46:22;23.10;99.90
53204;DHT22;39086;54.424;18.456;2022-08-16T07:47:41;23.10;99.90
53204;DHT22;39086;54.424;18.456;2022-08-16T07:48:46;23.10;99.90
53204;DHT22;39086;54.424;18.456;2022-08-16T07:50:04;23.10;99.90
53204;DHT22;39086;54.424;18.456;2022-08-16T07:51:29;23.20;99.90
53204;DHT22;39086;54.424;18.456;2022-08-16T07:52:39;23.20;99.90
53204;DHT22;39086;54.424;18.456;2022-08-16T07:53:43;23.20;99.90
53204;DHT22;39086;54.424;18.456;2022-08-16T07:55:03;23.30;99.90
53204;DHT22;39086;54.424;18.456;2022-08-16T07:56:12;23.30;99.90
53204;DHT22;39086;54.424;18.456;2022-08-16T07:57:20;23.30;99.90
53204;DHT22;39086;54.424;18.456;2022-08-16T07:58:25;23.40;99.90
53204;DHT22;39086;54.424;18.456;2022-08-16T07:59:36;23.40;99.90
53204;DHT22;39086;54.424;18.456;2022-08-16T08:00:48;23.50;99.90
53204;DHT22;39086;54.424;18.456;2022-08-16T08:01:53;23.50;99.90
53204;DHT22;39086;54.424;18.456;2022-08-16T08:02:57;23.60;99.90
53204;DHT22;39086;54.424;18.456;2022-08-16T08:04:04;23.60;99.90
53204;DHT22;39086;54.424;18.456;2022-08-16T08:05:16;23.60;99.90
53204;DHT22;39086;54.424;18.456;2022-08-16T08:06:36;23.70;99.90
53204;DHT22;39086;54.424;18.456;2022-08-16T08:07:41;23.80;99.90
53204;DHT22;39086;54.424;18.456;2022-08-16T08:08:46;23.90;99.90
53204;DHT22;39086;54.424;18.456;2022-08-16T08:09:53;23.40;99.90
53204;DHT22;39086;54.424;18.456;2022-08-16T08:11:04;24.00;99.90
53204;DHT22;39086;54.424;18.456;2022-08-16T08:12:10;24.10;99.90
53204;DHT22;39086;54.424;18.456;2022-08-16T08:13:32;24.10;99.90
53204;DHT22;39086;54.424;18.456;2022-08-16T08:14:43;24.20;99.90
53204;DHT22;39086;54.424;18.456;2022-08-16T08:15:53;24.30;99.90
53204;DHT22;39086;54.424;18.456;2022-08-16T08:16:56;24.40;99.90
53204;DHT22;39086;54.424;18.456;2022-08-16T08:18:02;24.40;99.90
53204;DHT22;39086;54.424;18.456;2022-08-16T08:19:25;24.40;99.90
53204;DHT22;39086;54.424;18.456;2022-08-16T08:20:35;24.50;99.90
53204;DHT22;39086;54.424;18.456;2022-08-16T08:21:39;24.40;99.90
53204;DHT22;39086;54.424;18.456;2022-08-16T08:23:03;24.60;99.90
53204;DHT22;39086;54.424;18.456;2022-08-16T08:24:09;24.60;99.90
53204;DHT22;39086;54.424;18.456;2022-08-16T08:25:19;24.70;99.90
53204;DHT22;39086;54.424;18.456;2022-08-16T08:26:24;24.30;99.90
53204;DHT22;39086;54.424;18.456;2022-08-16T08:27:29;24.70;99.90
53204;DHT22;39086;54.424;18.456;2022-08-16T08:28:40;24.70;99.90
53204;DHT22;39086;54.424;18.456;2022-08-16T08:30:02;24.80;99.90
53204;DHT22;39086;54.424;18.456;2022-08-16T08:31:31;24.80;99.90
53204;DHT22;39086;54.424;18.456;2022-08-16T08:32:37;24.90;99.90
53204;DHT22;39086;54.424;18.456;2022-08-16T08:33:59;25.00;99.90
53204;DHT22;39086;54.424;18.456;2022-08-16T08:35:07;25.00;99.90
53204;DHT22;39086;54.424;18.456;2022-08-16T08:36:16;25.10;99.90
53204;DHT22;39086;54.424;18.456;2022-08-16T08:37:36;25.20;99.90
53204;DHT22;39086;54.424;18.456;2022-08-16T08:38:58;25.10;99.90
53204;DHT22;39086;54.424;18.456;2022-08-16T08:40:14;25.20;99.90
53204;DHT22;39086;54.424;18.456;2022-08-16T08:41:19;25.20;99.90
53204;DHT22;39086;54.424;18.456;2022-08-16T08:42:29;25.30;99.90
53204;DHT22;39086;54.424;18.456;2022-08-16T08:43:32;25.40;99.90
53204;DHT22;39086;54.424;18.456;2022-08-16T08:44:42;25.30;99.90
53204;DHT22;39086;54.424;18.456;2022-08-16T08:45:52;25.10;99.90
53204;DHT22;39086;54.424;18.456;2022-08-16T08:47:13;25.40;99.90
53204;DHT22;39086;54.424;18.456;2022-08-16T08:48:18;25.40;99.90
53204;DHT22;39086;54.424;18.456;2022-08-16T08:49:37;25.50;99.90
53204;DHT22;39086;54.424;18.456;2022-08-16T08:50:56;25.60;99.90
53204;DHT22;39086;54.424;18.456;2022-08-16T08:52:01;25.60;99.90
53204;DHT22;39086;54.424;18.456;2022-08-16T08:53:10;25.70;99.90
53204;DHT22;39086;54.424;18.456;2022-08-16T08:54:15;25.70;99.90
53204;DHT22;39086;54.424;18.456;2022-08-16T08:55:21;25.70;99.90
53204;DHT22;39086;54.424;18.456;2022-08-16T08:56:31;25.80;99.90
53204;DHT22;39086;54.424;18.456;2022-08-16T08:57:47;25.90;99.90
53204;DHT22;39086;54.424;18.456;2022-08-16T08:58:51;25.80;99.90
53204;DHT22;39086;54.424;18.456;2022-08-16T09:00:03;25.90;99.90
53204;DHT22;39086;54.424;18.456;2022-08-16T09:01:19;26.00;99.90
53204;DHT22;39086;54.424;18.456;2022-08-16T09:02:38;25.90;99.90
53204;DHT22;39086;54.424;18.456;2022-08-16T09:03:53;26.00;99.90
53204;DHT22;39086;54.424;18.456;2022-08-16T09:04:58;26.00;99.90
53204;DHT22;39086;54.424;18.456;2022-08-16T09:06:02;26.30;99.90
53204;DHT22;39086;54.424;18.456;2022-08-16T09:08:10;26.10;99.90
53204;DHT22;39086;54.424;18.456;2022-08-16T09:09:29;26.10;99.90
53204;DHT22;39086;54.424;18.456;2022-08-16T09:10:35;26.20;99.90
53204;DHT22;39086;54.424;18.456;2022-08-16T09:11:41;26.30;99.90
53204;DHT22;39086;54.424;18.456;2022-08-16T09:12:51;26.20;99.90
53204;DHT22;39086;54.424;18.456;2022-08-16T09:14:00;26.30;99.90
53204;DHT22;39086;54.424;18.456;2022-08-16T09:15:07;26.40;99.90
53204;DHT22;39086;54.424;18.456;2022-08-16T09:16:12;26.50;99.90
53204;DHT22;39086;54.424;18.456;2022-08-16T09:17:37;26.50;99.90
53204;DHT22;39086;54.424;18.456;2022-08-16T09:18:55;26.80;99.90
53204;DHT22;39086;54.424;18.456;2022-08-16T09:20:04;26.50;99.90
53204;DHT22;39086;54.424;18.456;2022-08-16T09:21:08;26.50;99.90
53204;DHT22;39086;54.424;18.456;2022-08-16T09:22:12;26.50;99.90
53204;DHT22;39086;54.424;18.456;2022-08-16T09:23:22;26.60;99.90
53204;DHT22;39086;54.424;18.456;2022-08-16T09:24:39;26.60;99.90
53204;DHT22;39086;54.424;18.456;2022-08-16T09:25:54;26.60;99.90
53204;DHT22;39086;54.424;18.456;2022-08-16T09:26:58;26.70;99.90
53204;DHT22;39086;54.424;18.456;2022-08-16T09:28:07;26.70;99.90
53204;DHT22;39086;54.424;18.456;2022-08-16T09:29:43;26.80;99.90
53204;DHT22;39086;54.424;18.456;2022-08-16T09:30:47;27.00;99.90
53204;DHT22;39086;54.424;18.456;2022-08-16T09:31:58;27.00;99.90
53204;DHT22;39086;54.424;18.456;2022-08-16T09:33:01;27.10;99.90
53204;DHT22;39086;54.424;18.456;2022-08-16T09:34:07;27.10;99.90
53204;DHT22;39086;54.424;18.456;2022-08-16T09:35:11;27.10;99.90
53204;DHT22;39086;54.424;18.456;2022-08-16T09:36:16;27.20;99.90
53204;DHT22;39086;54.424;18.456;2022-08-16T09:37:34;27.30;99.90
53204;DHT22;39086;54.424;18.456;2022-08-16T09:38:38;27.40;99.90
53204;DHT22;39086;54.424;18.456;2022-08-16T09:39:43;27.50;99.90
53204;DHT22;39086;54.424;18.456;2022-08-16T09:40:51;27.50;99.90
53204;DHT22;39086;54.424;18.456;2022-08-16T09:41:54;27.60;99.90
53204;DHT22;39086;54.424;18.456;2022-08-16T09:43:14;27.60;99.90
53204;DHT22;39086;54.424;18.456;2022-08-16T09:44:36;27.70;99.90
53204;DHT22;39086;54.424;18.456;2022-08-16T09:46:01;27.80;99.90
53204;DHT22;39086;54.424;18.456;2022-08-16T09:47:04;27.80;99.90
53204;DHT22;39086;54.424;18.456;2022-08-16T09:48:14;27.90;99.90
53204;DHT22;39086;54.424;18.456;2022-08-16T09:49:36;27.90;99.90
53204;DHT22;39086;54.424;18.456;2022-08-16T09:50:52;28.00;99.90
53204;DHT22;39086;54.424;18.456;2022-08-16T09:51:57;28.00;99.90
53204;DHT22;39086;54.424;18.456;2022-08-16T09:53:00;28.00;99.90
53204;DHT22;39086;54.424;18.456;2022-08-16T09:54:05;28.10;99.90
53204;DHT22;39086;54.424;18.456;2022-08-16T09:55:19;28.10;99.90
53204;DHT22;39086;54.424;18.456;2022-08-16T09:56:28;28.10;99.90
53204;DHT22;39086;54.424;18.456;2022-08-16T09:57:32;28.10;99.90
53204;DHT22;39086;54.424;18.456;2022-08-16T09:58:35;28.10;99.90
53204;DHT22;39086;54.424;18.456;2022-08-16T10:00:02;28.20;99.90
53204;DHT22;39086;54.424;18.456;2022-08-16T10:01:34;28.20;99.90
53204;DHT22;39086;54.424;18.456;2022-08-16T10:02:44;28.10;99.90
53204;DHT22;39086;54.424;18.456;2022-08-16T10:03:49;28.20;99.90
53204;DHT22;39086;54.424;18.456;2022-08-16T10:05:04;28.20;99.90
53204;DHT22;39086;54.424;18.456;2022-08-16T10:06:14;28.30;99.90
53204;DHT22;39086;54.424;18.456;2022-08-16T10:07:18;28.20;99.90
53204;DHT22;39086;54.424;18.456;2022-08-16T10:08:45;28.30;99.90
53204;DHT22;39086;54.424;18.456;2022-08-16T10:10:07;28.30;99.90
53204;DHT22;39086;54.424;18.456;2022-08-16T10:11:14;28.30;99.90
53204;DHT22;39086;54.424;18.456;2022-08-16T10:12:52;28.40;99.90
53204;DHT22;39086;54.424;18.456;2022-08-16T10:14:19;28.40;99.90
53204;DHT22;39086;54.424;18.456;2022-08-16T10:15:26;28.40;99.90
53204;DHT22;39086;54.424;18.456;2022-08-16T10:16:31;28.50;99.90
53204;DHT22;39086;54.424;18.456;2022-08-16T10:17:40;28.50;99.90
53204;DHT22;39086;54.424;18.456;2022-08-16T10:18:43;28.70;99.90
53204;DHT22;39086;54.424;18.456;2022-08-16T10:20:08;28.60;99.90
53204;DHT22;39086;54.424;18.456;2022-08-16T10:21:19;28.70;99.90
53204;DHT22;39086;54.424;18.456;2022-08-16T10:22:32;28.80;99.90
53204;DHT22;39086;54.424;18.456;2022-08-16T10:23:36;28.70;99.90
53204;DHT22;39086;54.424;18.456;2022-08-16T10:24:39;28.80;99.90
53204;DHT22;39086;54.424;18.456;2022-08-16T10:26:01;28.80;99.90
53204;DHT22;39086;54.424;18.456;2022-08-16T10:27:24;28.80;99.90
53204;DHT22;39086;54.424;18.456;2022-08-16T10:28:56;28.90;99.90
53204;DHT22;39086;54.424;18.456;2022-08-16T10:30:07;28.90;99.90
53204;DHT22;39086;54.424;18.456;2022-08-16T10:31:27;28.90;99.90
53204;DHT22;39086;54.424;18.456;2022-08-16T10:32:47;29.00;99.90
53204;DHT22;39086;54.424;18.456;2022-08-16T10:33:57;29.10;99.90
53204;DHT22;39086;54.424;18.456;2022-08-16T10:35:02;29.10;99.90
53204;DHT22;39086;54.424;18.456;2022-08-16T10:36:07;29.10;99.90
53204;DHT22;39086;54.424;18.456;2022-08-16T10:37:13;29.10;99.90
53204;DHT22;39086;54.424;18.456;2022-08-16T10:38:34;29.20;99.90
53204;DHT22;39086;54.424;18.456;2022-08-16T10:39:44;29.20;99.90
53204;DHT22;39086;54.424;18.456;2022-08-16T10:40:47;29.20;99.90
53204;DHT22;39086;54.424;18.456;2022-08-16T10:41:50;29.10;99.90
53204;DHT22;39086;54.424;18.456;2022-08-16T10:42:55;29.20;99.90
53204;DHT22;39086;54.424;18.456;2022-08-16T10:44:01;29.20;99.90
53204;DHT22;39086;54.424;18.456;2022-08-16T10:45:11;29.20;99.90
53204;DHT22;39086;54.424;18.456;2022-08-16T10:46:14;29.30;99.90
53204;DHT22;39086;54.424;18.456;2022-08-16T10:47:37;29.20;99.90
53204;DHT22;39086;54.424;18.456;2022-08-16T10:48:41;29.30;99.90
53204;DHT22;39086;54.424;18.456;2022-08-16T10:49:49;29.30;99.90
53204;DHT22;39086;54.424;18.456;2022-08-16T10:50:58;29.40;99.90
53204;DHT22;39086;54.424;18.456;2022-08-16T10:52:02;29.40;99.90
53204;DHT22;39086;54.424;18.456;2022-08-16T10:53:20;29.50;99.90
53204;DHT22;39086;54.424;18.456;2022-08-16T10:54:23;29.60;99.90
53204;DHT22;39086;54.424;18.456;2022-08-16T10:55:31;29.60;99.90
53204;DHT22;39086;54.424;18.456;2022-08-16T10:56:47;29.60;99.90
53204;DHT22;39086;54.424;18.456;2022-08-16T10:57:58;29.80;99.90
53204;DHT22;39086;54.424;18.456;2022-08-16T10:59:14;30.20;99.90
53204;DHT22;39086;54.424;18.456;2022-08-16T11:00:39;30.70;99.90
53204;DHT22;39086;54.424;18.456;2022-08-16T11:01:50;30.60;99.90
53204;DHT22;39086;54.424;18.456;2022-08-16T11:03:13;30.60;99.90
53204;DHT22;39086;54.424;18.456;2022-08-16T11:04:37;30.40;99.90
53204;DHT22;39086;54.424;18.456;2022-08-16T11:06:01;30.30;99.90
53204;DHT22;39086;54.424;18.456;2022-08-16T11:07:14;30.40;99.90
53204;DHT22;39086;54.424;18.456;2022-08-16T11:08:39;30.30;99.90
53204;DHT22;39086;54.424;18.456;2022-08-16T11:09:56;30.10;99.90
53204;DHT22;39086;54.424;18.456;2022-08-16T11:11:25;30.00;99.90
53204;DHT22;39086;54.424;18.456;2022-08-16T11:12:55;29.80;99.90
53204;DHT22;39086;54.424;18.456;2022-08-16T11:14:20;29.70;99.90
53204;DHT22;39086;54.424;18.456;2022-08-16T11:15:25;29.50;99.90
53204;DHT22;39086;54.424;18.456;2022-08-16T11:16:27;29.50;99.90
53204;DHT22;39086;54.424;18.456;2022-08-16T11:17:57;29.60;99.90
53204;DHT22;39086;54.424;18.456;2022-08-16T11:19:20;29.80;99.90
53204;DHT22;39086;54.424;18.456;2022-08-16T11:20:31;29.70;99.90
53204;DHT22;39086;54.424;18.456;2022-08-16T11:21:43;29.70;99.90
53204;DHT22;39086;54.424;18.456;2022-08-16T11:23:14;29.70;99.90
53204;DHT22;39086;54.424;18.456;2022-08-16T11:24:18;29.70;99.90
53204;DHT22;39086;54.424;18.456;2022-08-16T11:25:40;29.70;99.90
53204;DHT22;39086;54.424;18.456;2022-08-16T11:27:04;29.70;99.90
53204;DHT22;39086;54.424;18.456;2022-08-16T11:28:32;29.90;99.90
53204;DHT22;39086;54.424;18.456;2022-08-16T11:30:12;29.90;99.90
53204;DHT22;39086;54.424;18.456;2022-08-16T11:31:21;29.90;99.90
53204;DHT22;39086;54.424;18.456;2022-08-16T11:32:34;30.00;99.90
53204;DHT22;39086;54.424;18.456;2022-08-16T11:33:44;30.00;99.90
53204;DHT22;39086;54.424;18.456;2022-08-16T11:34:56;30.10;99.90
53204;DHT22;39086;54.424;18.456;2022-08-16T11:36:14;30.50;99.90
53204;DHT22;39086;54.424;18.456;2022-08-16T11:37:29;30.60;99.90
53204;DHT22;39086;54.424;18.456;2022-08-16T11:39:00;30.70;99.90
53204;DHT22;39086;54.424;18.456;2022-08-16T11:40:06;30.90;99.90
53204;DHT22;39086;54.424;18.456;2022-08-16T11:41:10;30.90;99.90
53204;DHT22;39086;54.424;18.456;2022-08-16T11:42:14;31.00;99.90
53204;DHT22;39086;54.424;18.456;2022-08-16T11:43:34;30.90;99.90
53204;DHT22;39086;54.424;18.456;2022-08-16T11:44:44;31.00;99.90
53204;DHT22;39086;54.424;18.456;2022-08-16T11:45:57;31.20;99.90
53204;DHT22;39086;54.424;18.456;2022-08-16T11:47:21;31.20;99.90
53204;DHT22;39086;54.424;18.456;2022-08-16T11:48:26;31.00;99.90
53204;DHT22;39086;54.424;18.456;2022-08-16T11:49:36;31.10;99.90
53204;DHT22;39086;54.424;18.456;2022-08-16T11:50:40;31.10;99.90
53204;DHT22;39086;54.424;18.456;2022-08-16T11:51:44;30.80;99.90
53204;DHT22;39086;54.424;18.456;2022-08-16T11:52:53;30.60;99.90
53204;DHT22;39086;54.424;18.456;2022-08-16T11:53:56;30.30;99.90
53204;DHT22;39086;54.424;18.456;2022-08-16T11:55:20;30.10;99.90
53204;DHT22;39086;54.424;18.456;2022-08-16T11:56:24;30.00;99.90
53204;DHT22;39086;54.424;18.456;2022-08-16T11:57:47;30.10;99.90
53204;DHT22;39086;54.424;18.456;2022-08-16T11:58:57;30.20;99.90
53204;DHT22;39086;54.424;18.456;2022-08-16T11:59:59;30.30;99.90
53204;DHT22;39086;54.424;18.456;2022-08-16T12:01:30;30.30;99.90
53204;DHT22;39086;54.424;18.456;2022-08-16T12:02:54;30.40;99.90
53204;DHT22;39086;54.424;18.456;2022-08-16T12:03:57;30.30;99.90
53204;DHT22;39086;54.424;18.456;2022-08-16T12:05:01;30.30;99.90
53204;DHT22;39086;54.424;18.456;2022-08-16T12:06:11;30.30;99.90
53204;DHT22;39086;54.424;18.456;2022-08-16T12:07:26;30.30;99.90
53204;DHT22;39086;54.424;18.456;2022-08-16T12:08:34;29.90;99.90
53204;DHT22;39086;54.424;18.456;2022-08-16T12:09:37;29.60;99.90
53204;DHT22;39086;54.424;18.456;2022-08-16T12:10:49;29.60;99.90
53204;DHT22;39086;54.424;18.456;2022-08-16T12:11:53;29.40;99.90
53204;DHT22;39086;54.424;18.456;2022-08-16T12:12:56;29.50;99.90
53204;DHT22;39086;54.424;18.456;2022-08-16T12:14:04;29.40;99.90
53204;DHT22;39086;54.424;18.456;2022-08-16T12:15:18;29.40;99.90
53204;DHT22;39086;54.424;18.456;2022-08-16T12:16:23;29.50;99.90
53204;DHT22;39086;54.424;18.456;2022-08-16T12:17:37;29.60;99.90
53204;DHT22;39086;54.424;18.456;2022-08-16T12:18:40;29.80;99.90
53204;DHT22;39086;54.424;18.456;2022-08-16T12:19:50;29.90;99.90
53204;DHT22;39086;54.424;18.456;2022-08-16T12:20:54;30.00;99.90
53204;DHT22;39086;54.424;18.456;2022-08-16T12:22:00;30.10;99.90
53204;DHT22;39086;54.424;18.456;2022-08-16T12:23:07;30.20;99.90
53204;DHT22;39086;54.424;18.456;2022-08-16T12:24:10;30.20;99.90
53204;DHT22;39086;54.424;18.456;2022-08-16T12:25:21;30.20;99.90
53204;DHT22;39086;54.424;18.456;2022-08-16T12:26:31;30.20;99.90
53204;DHT22;39086;54.424;18.456;2022-08-16T12:27:38;30.30;99.90
53204;DHT22;39086;54.424;18.456;2022-08-16T12:36:13;30.80;99.90
53204;DHT22;39086;54.424;18.456;2022-08-16T12:37:24;30.60;99.90
53204;DHT22;39086;54.424;18.456;2022-08-16T12:38:28;30.30;99.90
53204;DHT22;39086;54.424;18.456;2022-08-16T12:41:58;29.90;99.90
53204;DHT22;39086;54.424;18.456;2022-08-16T12:43:09;29.80;99.90
53204;DHT22;39086;54.424;18.456;2022-08-16T18:21:57;19.30;99.90
53204;DHT22;39086;54.424;18.456;2022-08-16T18:23:31;19.40;99.90
53204;DHT22;39086;54.424;18.456;2022-08-16T18:24:34;19.40;99.90
53204;DHT22;39086;54.424;18.456;2022-08-16T18:25:40;19.50;99.90
53204;DHT22;39086;54.424;18.456;2022-08-16T18:26:45;19.50;99.90
53204;DHT22;39086;54.424;18.456;2022-08-16T18:27:48;19.40;99.90
53204;DHT22;39086;54.424;18.456;2022-08-16T18:29:06;19.40;99.90
53204;DHT22;39086;54.424;18.456;2022-08-16T18:30:23;19.40;99.90
53204;DHT22;39086;54.424;18.456;2022-08-16T18:31:26;19.40;99.90
53204;DHT22;39086;54.424;18.456;2022-08-16T18:32:30;19.40;99.90
53204;DHT22;39086;54.424;18.456;2022-08-16T18:33:38;19.40;99.90
53204;DHT22;39086;54.424;18.456;2022-08-16T18:34:45;19.50;99.90
53204;DHT22;39086;54.424;18.456;2022-08-16T18:35:47;19.60;99.90
53204;DHT22;39086;54.424;18.456;2022-08-16T18:36:58;19.60;99.90
53204;DHT22;39086;54.424;18.456;2022-08-16T18:38:02;19.60;99.90
53204;DHT22;39086;54.424;18.456;2022-08-16T18:39:11;19.50;99.90
53204;DHT22;39086;54.424;18.456;2022-08-16T18:40:15;19.50;99.90
53204;DHT22;39086;54.424;18.456;2022-08-16T19:33:27;19.40;99.90
53204;DHT22;39086;54.424;18.456;2022-08-16T19:34:40;19.50;99.90
53204;DHT22;39086;54.424;18.456;2022-08-16T19:35:49;19.50;99.90
53204;DHT22;39086;54.424;18.456;2022-08-16T19:36:56;19.50;99.90
53204;DHT22;39086;54.424;18.456;2022-08-16T19:38:03;19.50;99.90
53204;DHT22;39086;54.424;18.456;2022-08-16T19:39:12;19.50;99.90
53204;DHT22;39086;54.424;18.456;2022-08-16T19:41:42;19.30;99.90
53204;DHT22;39086;54.424;18.456;2022-08-16T19:42:58;19.40;99.90
53204;DHT22;39086;54.424;18.456;2022-08-16T19:44:09;19.50;99.90
53204;DHT22;39086;54.424;18.456;2022-08-16T19:45:17;19.50;99.90
53204;DHT22;39086;54.424;18.456;2022-08-16T19:46:35;19.50;99.90
53204;DHT22;39086;54.424;18.456;2022-08-16T19:47:42;19.60;99.90
53204;DHT22;39086;54.424;18.456;2022-08-16T19:48:57;19.50;99.90
53204;DHT22;39086;54.424;18.456;2022-08-16T19:50:05;19.60;99.90
53204;DHT22;39086;54.424;18.456;2022-08-16T19:51:20;19.50;99.90
53204;DHT22;39086;54.424;18.456;2022-08-16T19:52:31;19.50;99.90
53204;DHT22;39086;54.424;18.456;2022-08-16T19:53:39;19.60;99.90
53204;DHT22;39086;54.424;18.456;2022-08-16T19:54:50;19.60;99.90
53204;DHT22;39086;54.424;18.456;2022-08-16T19:55:55;19.60;99.90
53204;DHT22;39086;54.424;18.456;2022-08-16T19:59:28;19.60;99.90
53204;DHT22;39086;54.424;18.456;2022-08-16T20:00:43;19.60;99.90
53204;DHT22;39086;54.424;18.456;2022-08-16T20:01:57;19.50;99.90
53204;DHT22;39086;54.424;18.456;2022-08-16T20:03:32;19.50;99.90
53204;DHT22;39086;54.424;18.456;2022-08-16T20:04:39;19.60;99.90
53204;DHT22;39086;54.424;18.456;2022-08-16T20:05:44;19.60;99.90
53204;DHT22;39086;54.424;18.456;2022-08-16T20:06:51;19.60;99.90
53204;DHT22;39086;54.424;18.456;2022-08-16T20:08:03;19.60;99.90
53204;DHT22;39086;54.424;18.456;2022-08-16T20:10:17;19.60;99.90
53204;DHT22;39086;54.424;18.456;2022-08-16T20:11:30;19.70;99.90
53204;DHT22;39086;54.424;18.456;2022-08-16T20:12:34;19.60;99.90
53204;DHT22;39086;54.424;18.456;2022-08-16T20:13:40;19.60;99.90
53204;DHT22;39086;54.424;18.456;2022-08-16T20:14:50;19.70;99.90
53204;DHT22;39086;54.424;18.456;2022-08-16T20:15:54;19.70;99.90
53204;DHT22;39086;54.424;18.456;2022-08-16T20:17:07;19.70;99.90
53204;DHT22;39086;54.424;18.456;2022-08-16T20:18:12;19.70;99.90
53204;DHT22;39086;54.424;18.456;2022-08-16T20:19:30;19.70;99.90
53204;DHT22;39086;54.424;18.456;2022-08-16T20:20:42;19.60;99.90
53204;DHT22;39086;54.424;18.456;2022-08-16T20:21:57;19.70;99.90
53204;DHT22;39086;54.424;18.456;2022-08-16T20:23:03;19.70;99.90
53204;DHT22;39086;54.424;18.456;2022-08-16T20:24:08;19.70;99.90
53204;DHT22;39086;54.424;18.456;2022-08-16T20:25:31;19.70;99.90
53204;DHT22;39086;54.424;18.456;2022-08-16T20:26:42;19.70;99.90